Schedule Details


Flight Number: CTN385
Departure: Fiumicino (LIRF) at 18:00
Arrival: Cilipi (LDDU) at 19:25
Route: OKUNO UL5 ATRUP UM169 KATTI M169 AMUGO

Weather Information
LIRF 221620Z 10006KT 9999 BKN045 21/18 Q1014 NOSIG
LDDU 221600Z 13008KT 100V160 CAVOK 20/12 Q1019 NOSIG
Schedule Frequency

Route Map